METAR Data
IDs: Format: Raw Decoded Include TAF

Data at: 0154 UTC 20 Jul 2019

METAR for:KSHL (Sheldon Muni, IA, US)
Text:KSHL 200135Z AUTO 22005KT 10SM CLR 31/30 A2968 RMK AO2
Temperature: 31.0°C ( 88°F)
Dewpoint: 30.0°C ( 86°F) [RH = 94%]
Pressure (altimeter):29.68 inches Hg (1005.2 mb)
Winds:from the SW (220 degrees) at 6 MPH (5 knots; 2.6 m/s)
Visibility:10 or more sm (16+ km)
Ceiling:at least 12,000 feet AGL
Clouds:sky clear below 12,000 feet AGL
QC Flag:automated observation with no human augmentation